createdAt,value
2022-11-16T00:00:00.368Z,9.22
2022-11-16T00:02:34.263Z,9.24
2022-11-16T00:05:02.332Z,9.23
2022-11-16T00:07:30.508Z,9.22
2022-11-16T00:09:58.600Z,9.19
2022-11-16T00:12:26.519Z,9.18
2022-11-16T00:14:54.510Z,9.20
2022-11-16T00:17:22.497Z,9.21
2022-11-16T00:19:51.905Z,9.20
2022-11-16T00:22:19.907Z,9.21
2022-11-16T00:24:48.200Z,9.17
2022-11-16T00:27:16.131Z,9.16
2022-11-16T00:29:44.115Z,9.14
2022-11-16T00:32:12.407Z,9.12
2022-11-16T00:34:40.763Z,9.10
2022-11-16T00:37:10.235Z,9.09
2022-11-16T00:39:38.326Z,9.10
2022-11-16T00:42:06.477Z,9.12
2022-11-16T00:44:34.522Z,9.08
2022-11-16T00:47:02.698Z,9.10
2022-11-16T00:49:30.716Z,9.08
2022-11-16T00:51:59.063Z,9.04
2022-11-16T00:54:28.645Z,9.01
2022-11-16T00:56:57.011Z,9.03
2022-11-16T00:59:25.470Z,9.02
2022-11-16T01:01:57.466Z,9.04
2022-11-16T01:04:25.585Z,9.04
2022-11-16T01:06:54.003Z,9.01
2022-11-16T01:09:25.411Z,9.01
2022-11-16T01:12:09.895Z,9.01
2022-11-16T01:14:40.298Z,8.99
2022-11-16T01:17:08.300Z,8.99
2022-11-16T01:19:37.629Z,8.98
2022-11-16T01:22:06.095Z,8.99
2022-11-16T01:24:34.366Z,8.98
2022-11-16T01:27:03.764Z,8.96
2022-11-16T01:29:35.130Z,8.98
2022-11-16T01:32:03.342Z,8.96
2022-11-16T01:34:32.715Z,8.98
2022-11-16T01:37:06.839Z,8.99
2022-11-16T01:39:38.993Z,8.95
2022-11-16T01:42:17.944Z,8.94
2022-11-16T01:44:59.478Z,8.96
2022-11-16T01:47:27.910Z,9.01
2022-11-16T01:50:04.019Z,9.02
2022-11-16T01:52:37.847Z,9.02
2022-11-16T01:55:07.183Z,9.01
2022-11-16T01:57:49.877Z,9.02
2022-11-16T02:00:19.138Z,9.03
2022-11-16T02:03:00.758Z,9.02
2022-11-16T02:06:12.665Z,9.04
2022-11-16T02:09:13.806Z,9.09
2022-11-16T02:13:01.413Z,9.11
2022-11-16T02:15:45.249Z,9.12
2022-11-16T02:18:31.444Z,9.15
2022-11-16T02:21:18.930Z,9.17
2022-11-16T02:24:13.631Z,9.12
2022-11-16T02:27:04.618Z,9.13
2022-11-16T02:29:38.665Z,9.15
2022-11-16T02:32:13.345Z,9.16
2022-11-16T02:34:45.982Z,9.16
2022-11-16T02:37:18.086Z,9.16
2022-11-16T02:39:49.244Z,9.16
2022-11-16T02:42:21.649Z,9.17
2022-11-16T02:44:55.725Z,9.16
2022-11-16T02:47:28.427Z,9.12
2022-11-16T02:50:01.527Z,9.13
2022-11-16T02:52:29.991Z,9.12
2022-11-16T02:54:58.212Z,9.14
2022-11-16T02:57:45.392Z,9.13
2022-11-16T03:00:22.060Z,9.15
2022-11-16T03:03:00.604Z,9.14
2022-11-16T03:05:34.018Z,9.09
2022-11-16T03:08:17.705Z,9.09
2022-11-16T03:11:07.153Z,9.06
2022-11-16T03:13:37.346Z,9.06
2022-11-16T03:16:12.311Z,9.03
2022-11-16T03:18:41.685Z,9.03
2022-11-16T03:21:18.702Z,9.01
2022-11-16T03:23:47.873Z,8.99
2022-11-16T03:26:19.791Z,8.97
2022-11-16T03:28:53.426Z,8.99
2022-11-16T03:31:29.119Z,9.00
2022-11-16T03:33:59.696Z,9.01
2022-11-16T03:36:32.218Z,9.01
2022-11-16T03:39:04.246Z,8.99
2022-11-16T03:41:38.636Z,9.01
2022-11-16T03:44:08.886Z,9.00
2022-11-16T03:46:38.508Z,9.03
2022-11-16T03:49:07.291Z,9.06
2022-11-16T03:51:37.797Z,9.10
2022-11-16T03:54:06.419Z,9.08
2022-11-16T03:56:35.910Z,9.10
2022-11-16T03:59:05.662Z,9.10
2022-11-16T04:01:33.663Z,9.09
2022-11-16T04:04:03.176Z,9.07
2022-11-16T04:06:49.081Z,9.08
2022-11-16T04:09:46.249Z,9.03
2022-11-16T04:12:31.808Z,9.03
2022-11-16T04:15:17.150Z,9.03
2022-11-16T04:18:02.577Z,9.03
2022-11-16T04:20:49.563Z,9.03
2022-11-16T04:23:31.697Z,8.96
2022-11-16T04:26:01.128Z,8.97
2022-11-16T04:28:30.650Z,8.99
2022-11-16T04:31:22.864Z,8.99
2022-11-16T04:34:16.227Z,8.99
2022-11-16T04:37:07.836Z,8.98
2022-11-16T04:39:36.469Z,8.97
2022-11-16T04:42:15.367Z,8.98
2022-11-16T04:45:02.916Z,8.95
2022-11-16T04:47:37.312Z,8.98
2022-11-16T04:50:07.005Z,8.98
2022-11-16T04:52:36.701Z,8.99
2022-11-16T04:55:07.136Z,9.03
2022-11-16T04:57:35.130Z,9.01
2022-11-16T05:00:05.904Z,9.03
2022-11-16T05:02:36.107Z,9.02
2022-11-16T05:05:04.472Z,9.00
2022-11-16T05:07:32.828Z,9.01
2022-11-16T05:10:09.453Z,9.02
2022-11-16T05:12:37.506Z,9.00
2022-11-16T05:15:08.722Z,9.01
2022-11-16T05:17:36.959Z,9.01
2022-11-16T05:20:28.268Z,9.02
2022-11-16T05:23:01.587Z,9.02
2022-11-16T05:25:36.948Z,9.02
2022-11-16T05:28:08.187Z,9.04
2022-11-16T05:30:40.663Z,9.03
2022-11-16T05:33:08.782Z,9.01
2022-11-16T05:35:40.983Z,8.98
2022-11-16T05:38:09.195Z,8.97
2022-11-16T05:40:43.862Z,8.91
2022-11-16T05:43:12.027Z,8.89
2022-11-16T05:45:48.577Z,8.85
2022-11-16T05:48:17.133Z,8.87
2022-11-16T05:50:45.544Z,8.85
2022-11-16T05:53:20.663Z,8.83
2022-11-16T05:55:51.350Z,8.85
2022-11-16T05:58:20.555Z,8.82
2022-11-16T06:00:51.050Z,8.79
2022-11-16T06:03:20.607Z,8.83
2022-11-16T06:05:48.630Z,8.87
2022-11-16T06:08:18.320Z,8.91
2022-11-16T06:10:47.275Z,8.89
2022-11-16T06:13:16.611Z,8.89
2022-11-16T06:15:50.199Z,8.92
2022-11-16T06:18:19.073Z,8.94
2022-11-16T06:20:48.827Z,8.93
2022-11-16T06:23:18.515Z,8.93
2022-11-16T06:25:47.180Z,8.93
2022-11-16T06:28:16.581Z,8.95
2022-11-16T06:30:45.081Z,8.95
2022-11-16T06:33:13.233Z,8.93
2022-11-16T06:35:41.655Z,8.94
2022-11-16T06:38:11.779Z,8.96
2022-11-16T06:40:39.802Z,8.97
2022-11-16T06:43:07.922Z,8.95
2022-11-16T06:45:37.635Z,8.97
2022-11-16T06:48:06.447Z,8.94
2022-11-16T06:50:34.551Z,8.94
2022-11-16T06:53:02.599Z,8.96
2022-11-16T06:55:31.011Z,8.93
2022-11-16T06:57:59.079Z,8.94
2022-11-16T07:00:27.960Z,8.93
2022-11-16T07:02:58.722Z,8.93
2022-11-16T07:05:26.719Z,8.95
2022-11-16T07:07:56.502Z,8.97
2022-11-16T07:10:26.530Z,8.96
2022-11-16T07:12:55.578Z,8.97
2022-11-16T07:15:24.752Z,8.98
2022-11-16T07:17:52.859Z,9.01
2022-11-16T07:20:23.111Z,9.01
2022-11-16T07:22:51.929Z,9.01
2022-11-16T07:25:19.919Z,9.03
2022-11-16T07:27:48.690Z,9.04
2022-11-16T07:30:17.260Z,9.04
2022-11-16T07:33:00.739Z,9.07
2022-11-16T07:36:03.452Z,9.10
2022-11-16T07:38:33.300Z,9.09
2022-11-16T07:41:02.265Z,9.13
2022-11-16T07:43:35.132Z,9.14
2022-11-16T07:49:03.994Z,9.18
2022-11-16T07:51:55.840Z,9.20
2022-11-16T07:54:46.711Z,9.22
2022-11-16T07:57:16.308Z,9.24
2022-11-16T07:59:44.985Z,9.30
2022-11-16T08:02:13.469Z,9.32
2022-11-16T08:04:42.891Z,9.40
2022-11-16T08:07:12.400Z,9.44
2022-11-16T08:09:50.582Z,9.47
2022-11-16T08:12:18.921Z,9.50
2022-11-16T08:14:48.166Z,9.49
2022-11-16T08:17:16.374Z,9.49
2022-11-16T08:19:45.178Z,9.51
2022-11-16T08:22:17.619Z,9.51
2022-11-16T08:24:47.313Z,9.51
2022-11-16T08:27:16.989Z,9.53
2022-11-16T08:29:47.973Z,9.53
2022-11-16T08:32:16.532Z,9.55
2022-11-16T08:34:45.232Z,9.57
2022-11-16T08:37:14.460Z,9.57
2022-11-16T08:39:48.209Z,9.54
2022-11-16T08:42:16.343Z,9.52
2022-11-16T08:44:48.127Z,9.51
2022-11-16T08:47:19.505Z,9.49
2022-11-16T08:49:56.434Z,9.48
2022-11-16T08:52:26.781Z,9.50
2022-11-16T08:54:57.969Z,9.51
2022-11-16T08:57:26.457Z,9.52
2022-11-16T08:59:59.188Z,9.55
2022-11-16T09:02:27.637Z,9.57
2022-11-16T09:04:55.604Z,9.57
2022-11-16T09:07:23.781Z,9.53
2022-11-16T09:09:51.765Z,9.60
2022-11-16T09:12:21.068Z,9.62
2022-11-16T09:14:49.093Z,9.63
2022-11-16T09:17:22.787Z,9.66
2022-11-16T09:19:51.159Z,9.66
2022-11-16T09:22:19.289Z,9.66
2022-11-16T09:24:47.498Z,9.67
2022-11-16T09:27:16.476Z,9.66
2022-11-16T09:29:45.855Z,9.66
2022-11-16T09:32:13.857Z,9.66
2022-11-16T09:34:41.975Z,9.69
2022-11-16T09:37:10.675Z,9.71
2022-11-16T09:39:38.731Z,9.70
2022-11-16T09:42:19.761Z,9.69
2022-11-16T09:45:05.607Z,9.73
2022-11-16T09:47:45.779Z,9.78
2022-11-16T09:50:26.603Z,9.84
2022-11-16T09:52:58.983Z,9.91
2022-11-16T09:55:33.286Z,9.93
2022-11-16T09:58:04.286Z,9.95
2022-11-16T10:00:36.110Z,9.99
2022-11-16T10:03:08.025Z,10.05
2022-11-16T10:05:41.874Z,10.12
2022-11-16T10:08:16.203Z,10.18
2022-11-16T10:10:52.749Z,10.28
2022-11-16T10:13:35.821Z,10.32
2022-11-16T10:16:14.973Z,10.25
2022-11-16T10:18:55.100Z,10.25
2022-11-16T10:21:37.895Z,10.23
2022-11-16T10:24:34.234Z,10.20
2022-11-16T10:27:22.005Z,10.22
2022-11-16T10:29:58.437Z,10.21
2022-11-16T10:32:32.216Z,10.23
2022-11-16T10:35:05.317Z,10.27
2022-11-16T10:37:36.945Z,10.31
2022-11-16T10:40:18.665Z,10.38
2022-11-16T10:42:54.862Z,10.41
2022-11-16T10:45:26.498Z,10.50
2022-11-16T10:48:02.628Z,10.57
2022-11-16T10:50:36.221Z,10.61
2022-11-16T10:53:04.471Z,10.62
2022-11-16T10:55:32.502Z,10.66
2022-11-16T10:58:01.963Z,10.73
2022-11-16T11:00:44.134Z,10.76
2022-11-16T11:03:14.188Z,10.83
2022-11-16T11:05:54.510Z,10.90
2022-11-16T11:08:27.842Z,10.99
2022-11-16T11:11:01.783Z,11.05
2022-11-16T11:13:30.159Z,11.05
2022-11-16T11:16:17.144Z,11.08
2022-11-16T11:18:46.605Z,11.14
2022-11-16T11:21:19.777Z,11.20
2022-11-16T11:23:50.816Z,11.23
2022-11-16T11:26:36.513Z,11.25
2022-11-16T11:29:18.147Z,11.26
2022-11-16T11:31:50.239Z,11.17
2022-11-16T11:34:22.808Z,11.16
2022-11-16T11:36:55.073Z,11.15
2022-11-16T11:39:34.370Z,11.21
2022-11-16T11:42:05.851Z,11.25
2022-11-16T11:44:44.713Z,11.25
2022-11-16T11:47:57.439Z,11.21
2022-11-16T11:50:39.950Z,11.23
2022-11-16T11:53:15.424Z,11.23
2022-11-16T11:55:43.641Z,11.24
2022-11-16T11:58:17.632Z,11.27
2022-11-16T12:00:57.273Z,11.29
2022-11-16T12:03:54.979Z,11.39
2022-11-16T12:06:32.483Z,11.35
2022-11-16T12:09:30.616Z,11.35
2022-11-16T12:12:15.674Z,11.35
2022-11-16T12:15:00.785Z,11.30
2022-11-16T12:17:36.211Z,11.30
2022-11-16T12:20:22.974Z,11.29
2022-11-16T12:23:05.707Z,11.28
2022-11-16T12:25:42.684Z,11.26
2022-11-16T12:29:25.187Z,11.23
2022-11-16T12:32:12.501Z,11.22
2022-11-16T12:34:53.477Z,11.19
2022-11-16T12:37:28.985Z,11.18
2022-11-16T12:40:19.402Z,11.23
2022-11-16T12:42:55.462Z,11.23
2022-11-16T12:45:38.764Z,11.24
2022-11-16T12:48:22.083Z,11.22
2022-11-16T12:50:57.876Z,11.24
2022-11-16T12:53:55.103Z,11.24
2022-11-16T12:56:34.427Z,11.25
2022-11-16T12:59:18.785Z,11.21
2022-11-16T13:02:00.279Z,11.21
2022-11-16T13:04:34.496Z,11.22
2022-11-16T13:07:11.413Z,11.21
2022-11-16T13:09:44.526Z,11.18
2022-11-16T13:12:17.254Z,11.15
2022-11-16T13:14:48.244Z,11.11
2022-11-16T13:17:21.933Z,11.10
2022-11-16T13:20:18.846Z,11.10
2022-11-16T13:22:55.813Z,11.08
2022-11-16T13:25:30.251Z,11.09
2022-11-16T13:28:06.147Z,11.10
2022-11-16T13:30:44.287Z,11.07
2022-11-16T13:33:28.866Z,11.09
2022-11-16T13:35:56.934Z,11.08
2022-11-16T13:38:53.212Z,11.11
2022-11-16T13:41:28.792Z,11.14
2022-11-16T13:43:58.906Z,11.13
2022-11-16T13:46:55.431Z,11.14
2022-11-16T13:49:28.398Z,11.16
2022-11-16T13:52:11.319Z,11.17
2022-11-16T13:54:50.545Z,11.21
2022-11-16T13:57:25.710Z,11.25
2022-11-16T14:00:10.149Z,11.28
2022-11-16T14:02:39.669Z,11.33
2022-11-16T14:05:15.911Z,11.30
2022-11-16T14:07:47.110Z,11.27
2022-11-16T14:11:02.311Z,11.24
2022-11-16T14:13:39.411Z,11.22
2022-11-16T14:16:47.071Z,11.22
2022-11-16T14:19:56.027Z,11.18
2022-11-16T14:22:51.289Z,11.16
2022-11-16T14:25:33.510Z,11.15
2022-11-16T14:28:14.379Z,11.15
2022-11-16T14:30:53.814Z,11.13
2022-11-16T14:33:32.460Z,11.11
2022-11-16T14:36:03.480Z,11.08
2022-11-16T14:38:34.099Z,11.07
2022-11-16T14:41:05.187Z,11.04
2022-11-16T14:43:40.147Z,11.04
2022-11-16T14:46:11.024Z,11.05
2022-11-16T14:48:45.221Z,11.00
2022-11-16T14:51:18.506Z,10.99
2022-11-16T14:53:50.033Z,10.96
2022-11-16T14:56:19.876Z,10.91
2022-11-16T14:58:53.095Z,10.87
2022-11-16T15:01:23.721Z,10.83
2022-11-16T15:03:56.148Z,10.83
2022-11-16T15:06:27.269Z,10.81
2022-11-16T15:09:00.221Z,10.75
2022-11-16T15:11:44.957Z,10.70
2022-11-16T15:14:19.401Z,10.64
2022-11-16T15:16:51.587Z,10.60
2022-11-16T15:19:19.912Z,10.59
2022-11-16T15:21:54.303Z,10.58
2022-11-16T15:24:31.976Z,10.56
2022-11-16T15:27:11.598Z,10.52
2022-11-16T15:29:39.984Z,10.49
2022-11-16T15:32:14.119Z,10.39
2022-11-16T15:34:42.055Z,10.33
2022-11-16T15:37:15.187Z,10.28
2022-11-16T15:39:44.223Z,10.21
2022-11-16T15:42:16.606Z,10.11
2022-11-16T15:44:45.209Z,10.11
2022-11-16T15:47:14.871Z,10.04
2022-11-16T15:49:44.696Z,10.06
2022-11-16T15:52:14.002Z,10.07
2022-11-16T15:54:59.294Z,10.07
2022-11-16T15:57:27.175Z,10.02
2022-11-16T15:59:57.580Z,10.00
2022-11-16T16:02:28.507Z,9.92
2022-11-16T16:04:56.514Z,9.86
2022-11-16T16:07:40.019Z,9.82
2022-11-16T16:10:24.599Z,9.73
2022-11-16T16:12:54.341Z,9.67
2022-11-16T16:15:25.523Z,9.64
2022-11-16T16:17:54.912Z,9.53
2022-11-16T16:20:25.497Z,9.50
2022-11-16T16:22:55.358Z,9.43
2022-11-16T16:25:28.637Z,9.38
2022-11-16T16:27:56.701Z,9.32
2022-11-16T16:30:24.690Z,9.26
2022-11-16T16:32:52.968Z,9.22
2022-11-16T16:35:22.968Z,9.20
2022-11-16T16:37:52.407Z,9.13
2022-11-16T16:40:21.705Z,9.01
2022-11-16T16:42:50.109Z,9.00
2022-11-16T16:45:20.645Z,8.91
2022-11-16T16:47:50.348Z,8.95
2022-11-16T16:50:18.579Z,8.91
2022-11-16T16:52:46.659Z,8.86
2022-11-16T16:55:14.893Z,8.86
2022-11-16T16:57:44.215Z,8.89
2022-11-16T17:00:13.113Z,8.88
2022-11-16T17:02:41.056Z,8.83
2022-11-16T17:05:09.859Z,8.76
2022-11-16T17:07:37.964Z,8.74
2022-11-16T17:10:06.982Z,8.68
2022-11-16T17:12:35.303Z,8.63
2022-11-16T17:15:05.168Z,8.60
2022-11-16T17:17:33.220Z,8.53
2022-11-16T17:20:01.137Z,8.46
2022-11-16T17:22:29.115Z,8.45
2022-11-16T17:24:57.200Z,8.39
2022-11-16T17:27:25.190Z,8.34
2022-11-16T17:29:53.214Z,8.32
2022-11-16T17:32:22.574Z,8.32
2022-11-16T17:34:50.617Z,8.30
2022-11-16T17:37:18.614Z,8.25
2022-11-16T17:39:46.641Z,8.17
2022-11-16T17:42:14.600Z,8.14
2022-11-16T17:44:42.708Z,8.18
2022-11-16T17:47:11.950Z,8.17
2022-11-16T17:49:41.706Z,8.14
2022-11-16T17:52:09.700Z,8.11
2022-11-16T17:54:37.833Z,8.05
2022-11-16T17:57:06.160Z,8.02
2022-11-16T17:59:34.309Z,7.97
2022-11-16T18:02:02.517Z,7.88
2022-11-16T18:04:31.047Z,7.90
2022-11-16T18:07:01.292Z,7.87
2022-11-16T18:09:29.471Z,7.83
2022-11-16T18:11:58.451Z,7.84
2022-11-16T18:14:28.019Z,7.84
2022-11-16T18:16:56.111Z,7.84
2022-11-16T18:19:24.953Z,7.80
2022-11-16T18:21:54.504Z,7.86
2022-11-16T18:24:24.520Z,7.83
2022-11-16T18:26:52.815Z,7.82
2022-11-16T18:29:20.973Z,7.81
2022-11-16T18:31:48.963Z,7.80
2022-11-16T18:34:17.084Z,7.71
2022-11-16T18:36:46.368Z,7.64
2022-11-16T18:39:14.327Z,7.62
2022-11-16T18:41:53.280Z,7.66
2022-11-16T18:44:22.570Z,7.53
2022-11-16T18:46:50.585Z,7.51
2022-11-16T18:49:18.585Z,7.52
2022-11-16T18:51:46.681Z,7.47
2022-11-16T18:54:14.656Z,7.43
2022-11-16T18:56:42.561Z,7.35
2022-11-16T18:59:11.905Z,7.32
2022-11-16T19:01:40.077Z,7.31
2022-11-16T19:04:08.904Z,7.30
2022-11-16T19:06:37.091Z,7.28
2022-11-16T19:09:09.608Z,7.20
2022-11-16T19:11:37.730Z,7.15
2022-11-16T19:14:07.678Z,7.07
2022-11-16T19:16:39.655Z,7.03
2022-11-16T19:19:11.631Z,6.97
2022-11-16T19:21:39.984Z,6.93
2022-11-16T19:24:08.536Z,6.88
2022-11-16T19:26:36.642Z,6.88
2022-11-16T19:29:04.646Z,6.81
2022-11-16T19:31:33.920Z,6.73
2022-11-16T19:34:05.595Z,6.71
2022-11-16T19:36:35.971Z,6.70
2022-11-16T19:39:05.929Z,6.66
2022-11-16T19:41:34.123Z,6.65
2022-11-16T19:44:02.446Z,6.61
2022-11-16T19:46:32.443Z,6.62
2022-11-16T19:49:01.198Z,6.63
2022-11-16T19:51:32.225Z,6.65
2022-11-16T19:54:00.863Z,6.63
2022-11-16T19:56:29.655Z,6.62
2022-11-16T19:58:58.208Z,6.61
2022-11-16T20:01:29.235Z,6.52
2022-11-16T20:04:00.018Z,6.50
2022-11-16T20:06:30.697Z,6.47
2022-11-16T20:09:02.862Z,6.49
2022-11-16T20:11:33.838Z,6.48
2022-11-16T20:14:03.104Z,6.54
2022-11-16T20:16:38.116Z,6.49
2022-11-16T20:19:06.824Z,6.46
2022-11-16T20:21:38.168Z,6.42
2022-11-16T20:24:08.679Z,6.39
2022-11-16T20:26:37.937Z,6.38
2022-11-16T20:29:06.002Z,6.34
2022-11-16T20:31:35.077Z,6.28
2022-11-16T20:34:05.437Z,6.29
2022-11-16T20:36:35.088Z,6.26
2022-11-16T20:39:04.605Z,6.23
2022-11-16T20:41:34.182Z,6.21
2022-11-16T20:44:03.324Z,6.25
2022-11-16T20:46:33.091Z,6.27
2022-11-16T20:49:01.827Z,6.28
2022-11-16T20:51:30.525Z,6.25
2022-11-16T20:53:58.976Z,6.29
2022-11-16T20:56:28.383Z,6.26
2022-11-16T20:58:58.155Z,6.25
2022-11-16T21:01:31.442Z,6.24
2022-11-16T21:04:01.061Z,6.26
2022-11-16T21:06:29.419Z,6.26
2022-11-16T21:08:58.109Z,6.22
2022-11-16T21:11:29.850Z,6.22
2022-11-16T21:14:15.037Z,6.14
2022-11-16T21:16:43.422Z,6.09
2022-11-16T21:19:12.726Z,6.08
2022-11-16T21:21:41.515Z,6.07
2022-11-16T21:24:10.226Z,6.06
2022-11-16T21:26:39.513Z,6.03
2022-11-16T21:29:07.599Z,6.01
2022-11-16T21:31:37.001Z,5.97
2022-11-16T21:34:05.899Z,5.96
2022-11-16T21:36:34.281Z,5.96
2022-11-16T21:39:02.370Z,5.93
2022-11-16T21:41:30.323Z,5.95
2022-11-16T21:44:00.188Z,5.95
2022-11-16T21:46:28.587Z,5.96
2022-11-16T21:48:57.214Z,5.92
2022-11-16T21:51:27.356Z,5.93
2022-11-16T21:53:55.934Z,5.92
2022-11-16T21:56:25.642Z,5.95
2022-11-16T21:58:54.500Z,5.93
2022-11-16T22:01:24.778Z,5.91
2022-11-16T22:04:06.830Z,5.92
2022-11-16T22:06:52.186Z,5.95
2022-11-16T22:09:20.153Z,5.97
2022-11-16T22:11:48.444Z,5.96
2022-11-16T22:14:16.542Z,5.98
2022-11-16T22:16:45.932Z,5.98
2022-11-16T22:19:14.050Z,5.99
2022-11-16T22:21:42.069Z,6.04
2022-11-16T22:24:10.031Z,6.09
2022-11-16T22:26:39.907Z,6.03
2022-11-16T22:29:07.923Z,6.08
2022-11-16T22:31:36.342Z,6.07
2022-11-16T22:34:05.822Z,6.09
2022-11-16T22:36:33.786Z,6.10
2022-11-16T22:39:01.961Z,6.11
2022-11-16T22:41:30.384Z,6.18
2022-11-16T22:43:58.457Z,6.18
2022-11-16T22:46:26.434Z,6.22
2022-11-16T22:48:54.386Z,6.21
2022-11-16T22:51:25.472Z,6.25
2022-11-16T22:53:54.204Z,6.26
2022-11-16T22:56:22.314Z,6.28
2022-11-16T22:58:50.354Z,6.27
2022-11-16T23:01:18.964Z,6.24
2022-11-16T23:03:47.554Z,6.21
2022-11-16T23:06:16.141Z,6.23
2022-11-16T23:08:45.669Z,6.23
2022-11-16T23:11:33.091Z,6.25
2022-11-16T23:14:18.926Z,6.28
2022-11-16T23:16:47.404Z,6.28
2022-11-16T23:19:35.511Z,6.30
2022-11-16T23:22:21.755Z,6.28
2022-11-16T23:25:08.768Z,6.28
2022-11-16T23:27:41.893Z,6.31
2022-11-16T23:30:13.062Z,6.37
2022-11-16T23:32:42.259Z,6.34
2022-11-16T23:35:11.265Z,6.39
2022-11-16T23:37:51.851Z,6.35
2022-11-16T23:40:21.961Z,6.38
2022-11-16T23:43:07.034Z,6.41
2022-11-16T23:45:35.020Z,6.47
2022-11-16T23:48:03.058Z,6.51
2022-11-16T23:50:31.023Z,6.46
2022-11-16T23:52:59.059Z,6.42
2022-11-16T23:55:28.768Z,6.48
2022-11-16T23:57:56.638Z,6.37
